createdAt,value
2018-06-15T00:02:02.741Z,67.32
2018-06-15T00:04:15.110Z,67.79
2018-06-15T00:06:27.722Z,68.45
2018-06-15T00:08:40.091Z,67.41
2018-06-15T00:10:52.466Z,68.18
2018-06-15T00:13:04.792Z,67.81
2018-06-15T00:15:17.320Z,68.55
2018-06-15T00:17:29.996Z,68.45
2018-06-15T00:19:42.446Z,68.27
2018-06-15T00:21:54.846Z,67.67
2018-06-15T00:24:07.231Z,67.73
2018-06-15T00:26:19.638Z,67.70
2018-06-15T00:28:32.068Z,67.50
2018-06-15T00:30:44.485Z,67.56
2018-06-15T00:32:56.871Z,67.43
2018-06-15T00:35:09.295Z,67.85
2018-06-15T00:37:21.786Z,67.86
2018-06-15T00:39:34.235Z,67.29
2018-06-15T00:41:46.662Z,66.94
2018-06-15T00:43:59.026Z,67.41
2018-06-15T00:46:11.407Z,67.46
2018-06-15T00:48:23.810Z,68.17
2018-06-15T00:50:36.306Z,67.49
2018-06-15T00:52:48.688Z,68.04
2018-06-15T00:55:01.126Z,67.69
2018-06-15T00:57:24.672Z,67.93
2018-06-15T00:59:37.061Z,68.49
2018-06-15T01:01:49.663Z,69.57
2018-06-15T01:04:02.158Z,68.94
2018-06-15T01:06:14.529Z,69.96
2018-06-15T01:08:26.933Z,69.81
2018-06-15T01:10:39.365Z,70.02
2018-06-15T01:12:51.769Z,70.29
2018-06-15T01:15:04.425Z,69.79
2018-06-15T01:17:16.739Z,69.51
2018-06-15T01:19:29.150Z,70.21
2018-06-15T01:21:41.545Z,69.94
2018-06-15T01:23:54.050Z,69.69
2018-06-15T01:26:06.489Z,69.26
2018-06-15T01:28:18.878Z,69.97
2018-06-15T01:30:31.281Z,69.48
2018-06-15T01:32:43.686Z,70.10
2018-06-15T01:34:56.361Z,69.00
2018-06-15T01:37:08.712Z,69.11
2018-06-15T01:39:21.110Z,69.08
2018-06-15T01:41:36.716Z,69.69
2018-06-15T01:43:49.094Z,68.99
2018-06-15T01:46:02.962Z,68.80
2018-06-15T01:48:15.313Z,69.00
2018-06-15T01:50:27.688Z,69.56
2018-06-15T01:52:40.327Z,70.12
2018-06-15T01:54:52.619Z,70.34
2018-06-15T01:57:04.986Z,69.43
2018-06-15T01:59:17.474Z,69.78
2018-06-15T02:01:29.911Z,69.89
2018-06-15T02:03:42.266Z,70.63
2018-06-15T02:05:54.778Z,71.12
2018-06-15T02:08:07.214Z,70.56
2018-06-15T02:10:19.582Z,70.13
2018-06-15T02:12:31.980Z,69.46
2018-06-15T02:14:44.454Z,70.09
2018-06-15T02:16:56.978Z,69.40
2018-06-15T02:19:09.407Z,70.19
2018-06-15T02:21:21.829Z,69.33
2018-06-15T02:23:34.262Z,70.15
2018-06-15T02:25:46.626Z,70.33
2018-06-15T02:27:59.094Z,70.08
2018-06-15T02:30:11.462Z,69.94
2018-06-15T02:32:23.802Z,69.80
2018-06-15T02:34:36.174Z,69.84
2018-06-15T02:36:48.503Z,70.58
2018-06-15T02:39:01.050Z,70.12
2018-06-15T02:41:13.409Z,70.23
2018-06-15T02:43:25.803Z,70.61
2018-06-15T02:45:38.163Z,70.41
2018-06-15T02:47:50.489Z,71.58
2018-06-15T02:50:02.907Z,72.10
2018-06-15T02:52:15.342Z,71.40
2018-06-15T02:54:27.655Z,71.34
2018-06-15T02:56:40.092Z,71.89
2018-06-15T02:58:52.486Z,71.37
2018-06-15T03:01:04.949Z,71.89
2018-06-15T03:03:17.342Z,71.57
2018-06-15T03:05:29.735Z,70.28
2018-06-15T03:07:42.086Z,70.41
2018-06-15T03:09:54.436Z,71.16
2018-06-15T03:12:06.827Z,70.24
2018-06-15T03:14:19.195Z,70.11
2018-06-15T03:16:31.776Z,71.51
2018-06-15T03:18:44.162Z,71.09
2018-06-15T03:20:56.814Z,71.56
2018-06-15T03:23:09.214Z,70.81
2018-06-15T03:25:21.598Z,71.50
2018-06-15T03:27:34.034Z,70.66
2018-06-15T03:29:46.655Z,70.39
2018-06-15T03:31:59.047Z,70.90
2018-06-15T03:34:11.373Z,71.09
2018-06-15T03:36:23.848Z,71.39
2018-06-15T03:38:36.542Z,71.14
2018-06-15T03:40:48.965Z,72.23
2018-06-15T03:43:01.396Z,71.17
2018-06-15T03:45:13.818Z,71.77
2018-06-15T03:47:26.176Z,71.68
2018-06-15T03:49:38.571Z,71.96
2018-06-15T03:51:50.918Z,71.62
2018-06-15T03:54:03.942Z,72.36
2018-06-15T03:56:16.380Z,72.12
2018-06-15T03:58:28.958Z,71.77
2018-06-15T04:00:41.383Z,71.97
2018-06-15T04:02:53.735Z,72.23
2018-06-15T04:05:06.184Z,71.91
2018-06-15T04:07:18.589Z,71.73
2018-06-15T04:09:30.954Z,72.31
2018-06-15T04:11:43.426Z,72.11
2018-06-15T04:13:55.814Z,71.74
2018-06-15T04:16:08.390Z,71.92
2018-06-15T04:18:20.833Z,71.81
2018-06-15T04:20:34.158Z,71.37
2018-06-15T04:22:46.627Z,71.31
2018-06-15T04:24:59.104Z,71.06
2018-06-15T04:27:11.570Z,72.74
2018-06-15T04:29:23.919Z,71.98
2018-06-15T04:31:36.286Z,70.84
2018-06-15T04:33:48.647Z,70.88
2018-06-15T04:36:01.902Z,70.85
2018-06-15T04:38:14.250Z,70.72
2018-06-15T04:40:26.750Z,69.91
2018-06-15T04:42:39.134Z,70.77
2018-06-15T04:44:51.615Z,71.49
2018-06-15T04:47:04.385Z,71.58
2018-06-15T04:49:16.812Z,70.99
2018-06-15T04:51:29.225Z,71.73
2018-06-15T04:53:41.655Z,71.63
2018-06-15T04:55:54.082Z,70.82
2018-06-15T04:58:06.491Z,70.36
2018-06-15T05:00:18.897Z,70.60
2018-06-15T05:02:31.282Z,69.88
2018-06-15T05:04:43.710Z,69.79
2018-06-15T05:06:56.186Z,69.11
2018-06-15T05:09:09.451Z,70.00
2018-06-15T05:11:21.796Z,69.41
2018-06-15T05:13:34.130Z,68.94
2018-06-15T05:15:46.564Z,68.90
2018-06-15T05:17:59.015Z,68.19
2018-06-15T05:20:11.613Z,69.08
2018-06-15T05:22:24.024Z,68.63
2018-06-15T05:24:36.461Z,67.94
2018-06-15T05:26:48.975Z,68.35
2018-06-15T05:29:01.338Z,66.72
2018-06-15T05:31:13.734Z,66.46
2018-06-15T05:33:26.710Z,66.30
2018-06-15T05:35:39.130Z,66.45
2018-06-15T05:37:51.938Z,66.17
2018-06-15T05:40:04.520Z,65.48
2018-06-15T05:42:17.006Z,65.76
2018-06-15T05:44:29.635Z,65.10
2018-06-15T05:46:41.955Z,65.16
2018-06-15T05:48:54.382Z,65.25
2018-06-15T05:51:06.839Z,64.98
2018-06-15T05:53:19.566Z,65.01
2018-06-15T05:55:31.971Z,64.69
2018-06-15T05:57:44.340Z,64.35
2018-06-15T05:59:56.728Z,63.89
2018-06-15T06:02:09.235Z,64.99
2018-06-15T06:04:21.601Z,64.29
2018-06-15T06:06:34.038Z,64.51
2018-06-15T06:08:46.457Z,64.53
2018-06-15T06:10:58.846Z,64.95
2018-06-15T06:13:11.309Z,63.47
2018-06-15T06:15:23.720Z,63.61
2018-06-15T06:17:36.102Z,62.82
2018-06-15T06:19:48.589Z,62.93
2018-06-15T06:22:00.986Z,62.45
2018-06-15T06:24:13.380Z,62.12
2018-06-15T06:26:25.890Z,61.69
2018-06-15T06:28:38.275Z,61.75
2018-06-15T06:30:50.650Z,61.08
2018-06-15T06:33:03.122Z,61.72
2018-06-15T06:35:15.510Z,61.56
2018-06-15T06:37:27.958Z,62.37
2018-06-15T06:39:40.361Z,61.87
2018-06-15T06:41:52.787Z,60.54
2018-06-15T06:44:05.341Z,60.40
2018-06-15T06:46:17.718Z,61.45
2018-06-15T06:48:30.110Z,60.70
2018-06-15T06:50:42.494Z,60.94
2018-06-15T06:52:54.857Z,59.89
2018-06-15T06:55:07.515Z,58.96
2018-06-15T06:57:19.899Z,58.94
2018-06-15T06:59:32.370Z,58.91
2018-06-15T07:01:44.780Z,58.01
2018-06-15T07:03:57.154Z,58.35
2018-06-15T07:06:09.611Z,58.71
2018-06-15T07:08:22.026Z,58.39
2018-06-15T07:10:34.470Z,58.05
2018-06-15T07:12:46.886Z,57.42
2018-06-15T07:14:59.293Z,56.93
2018-06-15T07:17:11.695Z,55.67
2018-06-15T07:19:24.317Z,56.17
2018-06-15T07:21:37.033Z,56.07
2018-06-15T07:23:49.469Z,56.33
2018-06-15T07:26:02.285Z,55.61
2018-06-15T07:28:14.663Z,55.03
2018-06-15T07:30:27.074Z,55.03
2018-06-15T07:32:39.424Z,55.03
2018-06-15T07:34:51.810Z,54.09
2018-06-15T07:37:04.449Z,53.30
2018-06-15T07:39:16.780Z,53.15
2018-06-15T07:41:29.191Z,53.15
2018-06-15T07:43:41.556Z,51.39
2018-06-15T07:45:54.016Z,51.16
2018-06-15T07:48:06.386Z,50.82
2018-06-15T07:50:18.766Z,50.08
2018-06-15T07:52:31.228Z,49.17
2018-06-15T07:54:43.604Z,49.83
2018-06-15T07:56:56.195Z,50.70
2018-06-15T07:59:08.610Z,47.66
2018-06-15T08:01:21.054Z,46.04
2018-06-15T08:03:33.525Z,46.99
2018-06-15T08:05:45.910Z,48.45
2018-06-15T08:07:58.322Z,48.79
2018-06-15T08:10:10.736Z,49.08
2018-06-15T08:12:23.109Z,49.42
2018-06-15T08:14:35.663Z,50.91
2018-06-15T08:16:48.003Z,48.84
2018-06-15T08:19:00.663Z,49.65
2018-06-15T08:21:13.114Z,49.41
2018-06-15T08:23:25.446Z,49.45
2018-06-15T08:25:37.986Z,49.97
2018-06-15T08:27:50.417Z,46.65
2018-06-15T08:30:02.770Z,47.28
2018-06-15T08:32:15.182Z,46.54
2018-06-15T08:34:27.517Z,47.80
2018-06-15T08:36:39.881Z,47.53
2018-06-15T08:38:52.302Z,48.37
2018-06-15T08:41:04.650Z,47.53
2018-06-15T08:43:17.239Z,46.40
2018-06-15T08:45:29.726Z,47.07
2018-06-15T08:47:42.108Z,46.90
2018-06-15T08:49:54.444Z,47.45
2018-06-15T08:52:07.019Z,48.09
2018-06-15T08:54:19.419Z,47.83
2018-06-15T08:56:31.973Z,48.10
2018-06-15T08:58:44.427Z,46.62
2018-06-15T09:00:56.902Z,49.37
2018-06-15T09:03:09.340Z,45.61
2018-06-15T09:05:21.744Z,45.11
2018-06-15T09:07:34.182Z,44.56
2018-06-15T09:09:46.571Z,45.06
2018-06-15T09:11:58.956Z,44.34
2018-06-15T09:14:11.355Z,44.76
2018-06-15T09:16:23.739Z,44.17
2018-06-15T09:18:36.150Z,46.96
2018-06-15T09:20:48.537Z,45.15
2018-06-15T09:23:00.864Z,45.48
2018-06-15T09:25:13.354Z,44.97
2018-06-15T09:27:25.699Z,45.40
2018-06-15T09:29:38.133Z,43.85
2018-06-15T09:31:50.478Z,43.74
2018-06-15T09:34:03.099Z,42.89
2018-06-15T09:36:15.519Z,43.50
2018-06-15T09:38:27.906Z,43.89
2018-06-15T09:40:40.348Z,43.06
2018-06-15T09:42:52.717Z,41.37
2018-06-15T09:45:05.154Z,43.10
2018-06-15T09:47:17.507Z,42.50
2018-06-15T09:49:30.023Z,41.50
2018-06-15T09:51:42.403Z,43.02
2018-06-15T09:53:54.789Z,42.78
2018-06-15T09:56:07.194Z,43.88
2018-06-15T09:58:19.546Z,43.14
2018-06-15T10:00:37.514Z,43.54
2018-06-15T10:02:50.112Z,43.26
2018-06-15T10:05:02.509Z,39.69
2018-06-15T10:07:14.894Z,42.40
2018-06-15T10:09:27.256Z,42.07
2018-06-15T10:11:39.749Z,42.11
2018-06-15T10:13:52.133Z,40.82
2018-06-15T10:16:04.617Z,39.10
2018-06-15T10:18:17.001Z,39.95
2018-06-15T10:20:29.321Z,39.20
2018-06-15T10:22:41.719Z,37.94
2018-06-15T10:24:54.274Z,37.36
2018-06-15T10:27:06.735Z,37.45
2018-06-15T10:29:19.108Z,36.44
2018-06-15T10:31:31.526Z,36.03
2018-06-15T10:33:44.132Z,34.70
2018-06-15T10:35:56.612Z,36.97
2018-06-15T10:38:09.415Z,39.28
2018-06-15T10:40:21.790Z,40.04
2018-06-15T10:42:34.186Z,38.48
2018-06-15T10:44:46.538Z,39.29
2018-06-15T10:46:58.912Z,35.49
2018-06-15T10:49:11.315Z,39.13
2018-06-15T10:51:23.713Z,37.55
2018-06-15T10:53:36.153Z,38.96
2018-06-15T10:55:48.496Z,35.97
2018-06-15T10:58:00.913Z,35.56
2018-06-15T11:00:13.329Z,36.07
2018-06-15T11:02:25.691Z,38.06
2018-06-15T11:04:38.254Z,37.20
2018-06-15T11:06:50.598Z,35.74
2018-06-15T11:09:03.710Z,36.91
2018-06-15T11:11:16.196Z,40.09
2018-06-15T11:13:28.652Z,34.95
2018-06-15T11:15:41.028Z,37.46
2018-06-15T11:17:53.380Z,36.39
2018-06-15T11:20:05.779Z,38.38
2018-06-15T11:22:18.327Z,35.76
2018-06-15T11:24:31.001Z,37.87
2018-06-15T11:26:43.349Z,37.45
2018-06-15T11:28:55.764Z,38.07
2018-06-15T11:31:08.210Z,38.21
2018-06-15T11:33:20.551Z,38.57
2018-06-15T11:35:32.942Z,38.37
2018-06-15T11:37:45.368Z,36.50
2018-06-15T11:39:57.752Z,37.47
2018-06-15T11:42:10.130Z,38.66
2018-06-15T11:44:22.603Z,37.71
2018-06-15T11:46:35.277Z,37.65
2018-06-15T11:48:47.720Z,40.20
2018-06-15T11:51:00.069Z,36.93
2018-06-15T11:53:12.425Z,38.26
2018-06-15T11:55:24.770Z,37.90
2018-06-15T11:57:37.246Z,37.46
2018-06-15T11:59:49.597Z,36.36
2018-06-15T12:02:01.992Z,38.23
2018-06-15T12:04:14.338Z,37.80
2018-06-15T12:06:26.848Z,37.43
2018-06-15T12:08:39.196Z,35.67
2018-06-15T12:10:51.602Z,37.00
2018-06-15T12:13:04.065Z,38.41
2018-06-15T12:15:16.437Z,36.27
2018-06-15T12:17:28.825Z,40.29
2018-06-15T12:19:41.361Z,37.86
2018-06-15T12:21:53.718Z,39.49
2018-06-15T12:24:06.142Z,39.62
2018-06-15T12:26:18.594Z,42.53
2018-06-15T12:28:30.990Z,39.27
2018-06-15T12:30:43.426Z,41.59
2018-06-15T12:32:55.907Z,39.41
2018-06-15T12:35:08.244Z,38.38
2018-06-15T12:37:20.587Z,39.18
2018-06-15T12:39:33.030Z,39.06
2018-06-15T12:41:45.522Z,38.80
2018-06-15T12:43:58.164Z,37.68
2018-06-15T12:46:10.562Z,36.76
2018-06-15T12:48:23.168Z,38.45
2018-06-15T12:50:35.565Z,38.57
2018-06-15T12:52:47.956Z,40.44
2018-06-15T12:55:00.386Z,36.03
2018-06-15T12:57:12.794Z,36.91
2018-06-15T12:59:25.253Z,37.90
2018-06-15T13:01:37.681Z,37.70
2018-06-15T13:03:50.059Z,39.69
2018-06-15T13:06:07.241Z,40.24
2018-06-15T13:08:20.027Z,38.98
2018-06-15T13:10:32.506Z,37.03
2018-06-15T13:12:44.974Z,38.30
2018-06-15T13:14:57.303Z,37.58
2018-06-15T13:17:09.639Z,38.59
2018-06-15T13:19:22.010Z,38.75
2018-06-15T13:21:34.512Z,39.59
2018-06-15T13:23:46.888Z,40.60
2018-06-15T13:25:59.237Z,41.37
2018-06-15T13:28:11.658Z,41.35
2018-06-15T13:30:24.015Z,39.11
2018-06-15T13:32:36.469Z,40.43
2018-06-15T13:34:48.874Z,41.14
2018-06-15T13:37:01.267Z,40.95
2018-06-15T13:39:13.692Z,40.09
2018-06-15T13:41:28.033Z,38.99
2018-06-15T13:43:44.464Z,38.83
2018-06-15T13:45:56.991Z,37.67
2018-06-15T13:48:09.371Z,38.31
2018-06-15T13:50:21.842Z,37.67
2018-06-15T13:52:34.346Z,37.75
2018-06-15T13:54:46.687Z,38.74
2018-06-15T13:56:59.095Z,38.57
2018-06-15T13:59:11.493Z,36.60
2018-06-15T14:01:24.094Z,37.16
2018-06-15T14:03:36.535Z,36.44
2018-06-15T14:05:48.908Z,37.45
2018-06-15T14:08:01.354Z,36.72
2018-06-15T14:10:13.719Z,38.66
2018-06-15T14:12:26.097Z,39.79
2018-06-15T14:14:38.473Z,37.99
2018-06-15T14:16:50.958Z,38.27
2018-06-15T14:19:03.345Z,40.07
2018-06-15T14:21:15.778Z,38.97
2018-06-15T14:23:28.167Z,40.29
2018-06-15T14:25:40.621Z,38.86
2018-06-15T14:27:53.110Z,40.36
2018-06-15T14:30:05.552Z,40.45
2018-06-15T14:32:17.967Z,39.58
2018-06-15T14:34:30.362Z,41.73
2018-06-15T14:36:42.823Z,40.30
2018-06-15T14:38:55.257Z,38.63
2018-06-15T14:41:07.815Z,39.43
2018-06-15T14:43:20.260Z,39.89
2018-06-15T14:45:32.668Z,40.94
2018-06-15T14:47:45.044Z,39.77
2018-06-15T14:49:57.523Z,38.65
2018-06-15T14:52:09.963Z,38.88
2018-06-15T14:54:22.448Z,39.20
2018-06-15T14:56:34.814Z,39.96
2018-06-15T14:58:47.304Z,40.68
2018-06-15T15:00:59.770Z,40.17
2018-06-15T15:03:12.430Z,39.40
2018-06-15T15:05:24.943Z,40.04
2018-06-15T15:07:37.303Z,40.16
2018-06-15T15:09:49.692Z,39.27
2018-06-15T15:12:02.096Z,39.31
2018-06-15T15:14:14.658Z,40.39
2018-06-15T15:16:27.022Z,39.09
2018-06-15T15:18:39.374Z,39.33
2018-06-15T15:20:51.727Z,39.88
2018-06-15T15:23:04.210Z,40.07
2018-06-15T15:25:16.614Z,38.56
2018-06-15T15:27:28.986Z,39.09
2018-06-15T15:29:41.388Z,39.13
2018-06-15T15:31:53.836Z,41.13
2018-06-15T15:34:06.349Z,40.25
2018-06-15T15:36:19.024Z,38.40
2018-06-15T15:38:31.487Z,37.21
2018-06-15T15:40:43.851Z,38.24
2018-06-15T15:42:56.335Z,36.10
2018-06-15T15:45:08.808Z,38.42
2018-06-15T15:47:21.158Z,38.05
2018-06-15T15:49:33.593Z,38.53
2018-06-15T15:51:45.921Z,37.60
2018-06-15T15:53:58.758Z,37.23
2018-06-15T15:56:11.147Z,37.32
2018-06-15T15:58:23.474Z,38.45
2018-06-15T16:00:35.908Z,35.90
2018-06-15T16:02:48.349Z,35.61
2018-06-15T16:05:00.763Z,36.04
2018-06-15T16:07:13.252Z,35.13
2018-06-15T16:09:25.728Z,37.03
2018-06-15T16:11:38.147Z,38.12
2018-06-15T16:13:50.586Z,35.89
2018-06-15T16:16:02.922Z,37.04
2018-06-15T16:18:15.418Z,36.30
2018-06-15T16:20:27.870Z,35.35
2018-06-15T16:22:40.208Z,36.27
2018-06-15T16:24:52.630Z,36.68
2018-06-15T16:27:05.039Z,38.61
2018-06-15T16:29:17.430Z,37.63
2018-06-15T16:31:29.879Z,35.82
2018-06-15T16:33:42.290Z,36.99
2018-06-15T16:35:54.761Z,36.90
2018-06-15T16:38:07.252Z,36.68
2018-06-15T16:40:20.084Z,36.53
2018-06-15T16:42:32.494Z,36.16
2018-06-15T16:44:45.167Z,36.92
2018-06-15T16:46:57.533Z,37.31
2018-06-15T16:49:09.933Z,40.03
2018-06-15T16:51:22.350Z,38.91
2018-06-15T16:53:34.765Z,36.90
2018-06-15T16:55:47.173Z,36.77
2018-06-15T16:57:59.679Z,38.46
2018-06-15T17:00:12.126Z,36.88
2018-06-15T17:02:24.547Z,38.73
2018-06-15T17:04:36.954Z,40.01
2018-06-15T17:06:49.579Z,37.70
2018-06-15T17:09:02.206Z,36.94
2018-06-15T17:11:14.778Z,38.21
2018-06-15T17:13:27.261Z,38.91
2018-06-15T17:15:39.711Z,37.92
2018-06-15T17:17:52.142Z,38.92
2018-06-15T17:20:04.765Z,37.63
2018-06-15T17:22:17.195Z,38.58
2018-06-15T17:24:29.461Z,39.18
2018-06-15T17:26:41.971Z,36.82
2018-06-15T17:28:54.384Z,36.42
2018-06-15T17:31:06.768Z,37.74
2018-06-15T17:33:19.337Z,37.96
2018-06-15T17:35:31.763Z,37.23
2018-06-15T17:37:44.244Z,37.57
2018-06-15T17:39:56.614Z,38.68
2018-06-15T17:42:09.072Z,38.85
2018-06-15T17:44:21.643Z,39.62
2018-06-15T17:46:34.329Z,38.22
2018-06-15T17:48:46.745Z,38.48
2018-06-15T17:50:59.192Z,38.95
2018-06-15T17:53:11.564Z,38.71
2018-06-15T17:55:24.027Z,38.43
2018-06-15T17:57:36.586Z,38.54
2018-06-15T17:59:49.235Z,37.78
2018-06-15T18:02:01.973Z,37.92
2018-06-15T18:04:14.586Z,38.68
2018-06-15T18:06:27.007Z,39.57
2018-06-15T18:08:39.639Z,39.45
2018-06-15T18:10:52.156Z,38.35
2018-06-15T18:13:04.569Z,39.04
2018-06-15T18:15:17.007Z,38.69
2018-06-15T18:17:29.394Z,38.99
2018-06-15T18:19:41.777Z,38.17
2018-06-15T18:21:54.218Z,39.04
2018-06-15T18:24:06.642Z,38.95
2018-06-15T18:26:19.287Z,38.16
2018-06-15T18:28:31.658Z,38.94
2018-06-15T18:30:44.455Z,38.67
2018-06-15T18:32:56.979Z,38.91
2018-06-15T18:35:09.325Z,39.07
2018-06-15T18:37:21.714Z,40.23
2018-06-15T18:39:34.210Z,40.20
2018-06-15T18:41:46.555Z,41.00
2018-06-15T18:43:58.874Z,41.89
2018-06-15T18:46:11.469Z,42.88
2018-06-15T18:48:23.908Z,42.99
2018-06-15T18:50:36.463Z,43.29
2018-06-15T18:52:48.886Z,44.59
2018-06-15T18:55:01.258Z,44.84
2018-06-15T18:57:13.632Z,44.20
2018-06-15T18:59:26.033Z,45.17
2018-06-15T19:01:38.427Z,44.76
2018-06-15T19:03:50.890Z,45.55
2018-06-15T19:06:03.359Z,46.06
2018-06-15T19:08:15.800Z,47.49
2018-06-15T19:10:28.155Z,48.32
2018-06-15T19:12:40.644Z,49.64
2018-06-15T19:14:53.199Z,50.48
2018-06-15T19:17:05.755Z,51.68
2018-06-15T19:19:18.122Z,51.39
2018-06-15T19:21:30.497Z,52.29
2018-06-15T19:23:42.859Z,52.13
2018-06-15T19:25:55.207Z,53.05
2018-06-15T19:28:07.737Z,53.36
2018-06-15T19:30:20.121Z,52.99
2018-06-15T19:32:32.698Z,54.10
2018-06-15T19:34:45.211Z,53.84
2018-06-15T19:36:57.490Z,55.05
2018-06-15T19:39:10.297Z,55.55
2018-06-15T19:41:22.947Z,56.24
2018-06-15T19:43:35.323Z,56.13
2018-06-15T19:45:47.789Z,55.96
2018-06-15T19:48:00.158Z,56.57
2018-06-15T19:50:12.593Z,56.52
2018-06-15T19:52:25.053Z,56.31
2018-06-15T19:54:37.470Z,56.06
2018-06-15T19:56:50.255Z,56.05
2018-06-15T19:59:02.648Z,57.57
2018-06-15T20:01:15.091Z,57.09
2018-06-15T20:03:27.489Z,57.29
2018-06-15T20:05:39.943Z,57.58
2018-06-15T20:07:52.382Z,57.70
2018-06-15T20:10:04.779Z,58.39
2018-06-15T20:12:17.185Z,58.53
2018-06-15T20:14:29.633Z,59.20
2018-06-15T20:16:41.984Z,58.48
2018-06-15T20:18:54.390Z,58.61
2018-06-15T20:21:06.830Z,59.57
2018-06-15T20:23:19.313Z,59.53
2018-06-15T20:25:31.627Z,59.18
2018-06-15T20:27:44.171Z,59.58
2018-06-15T20:29:56.521Z,60.44
2018-06-15T20:32:08.925Z,59.54
2018-06-15T20:34:21.407Z,58.72
2018-06-15T20:36:33.762Z,58.73
2018-06-15T20:38:46.189Z,58.23
2018-06-15T20:40:58.618Z,56.91
2018-06-15T20:43:11.447Z,58.80
2018-06-15T20:45:23.747Z,56.33
2018-06-15T20:47:36.105Z,57.10
2018-06-15T20:49:48.463Z,57.73
2018-06-15T20:52:00.865Z,57.83
2018-06-15T20:54:13.242Z,57.71
2018-06-15T20:56:25.642Z,58.16
2018-06-15T20:58:38.134Z,58.03
2018-06-15T21:00:50.521Z,56.87
2018-06-15T21:03:03.006Z,57.61
2018-06-15T21:05:15.507Z,56.78
2018-06-15T21:07:27.893Z,57.26
2018-06-15T21:09:40.459Z,57.28
2018-06-15T21:11:52.823Z,57.07
2018-06-15T21:14:05.325Z,57.27
2018-06-15T21:16:17.730Z,56.70
2018-06-15T21:18:30.104Z,57.11
2018-06-15T21:20:42.518Z,57.33
2018-06-15T21:22:54.960Z,57.29
2018-06-15T21:25:07.880Z,57.50
2018-06-15T21:27:20.422Z,57.52
2018-06-15T21:29:32.807Z,57.38
2018-06-15T21:31:45.269Z,57.40
2018-06-15T21:33:57.642Z,57.20
2018-06-15T21:36:10.149Z,55.76
2018-06-15T21:38:22.498Z,55.93
2018-06-15T21:40:34.891Z,56.96
2018-06-15T21:42:47.303Z,58.11
2018-06-15T21:44:59.715Z,58.19
2018-06-15T21:47:12.332Z,59.24
2018-06-15T21:49:25.573Z,59.63
2018-06-15T21:51:37.955Z,60.07
2018-06-15T21:53:50.324Z,59.35
2018-06-15T21:56:02.726Z,60.18
2018-06-15T21:58:15.170Z,59.57
2018-06-15T22:00:27.664Z,60.53
2018-06-15T22:02:40.012Z,60.77
2018-06-15T22:04:52.510Z,61.58
2018-06-15T22:07:04.823Z,61.46
2018-06-15T22:09:17.177Z,60.98
2018-06-15T22:11:29.639Z,61.84
2018-06-15T22:13:42.035Z,62.64
2018-06-15T22:15:54.393Z,62.80
2018-06-15T22:18:06.865Z,62.93
2018-06-15T22:20:19.259Z,63.77
2018-06-15T22:22:31.690Z,63.98
2018-06-15T22:24:44.088Z,63.12
2018-06-15T22:26:56.529Z,63.47
2018-06-15T22:29:08.914Z,64.31
2018-06-15T22:31:21.326Z,64.68
2018-06-15T22:33:33.705Z,64.16
2018-06-15T22:35:46.124Z,65.20
2018-06-15T22:37:58.503Z,64.95
2018-06-15T22:40:10.803Z,64.99
2018-06-15T22:42:23.347Z,65.86
2018-06-15T22:44:35.713Z,65.17
2018-06-15T22:46:48.254Z,65.42
2018-06-15T22:49:00.615Z,65.34
2018-06-15T22:51:12.969Z,66.17
2018-06-15T22:53:25.234Z,65.96
2018-06-15T22:55:37.685Z,65.66
2018-06-15T22:57:50.085Z,66.26
2018-06-15T23:00:02.546Z,65.53
2018-06-15T23:02:14.949Z,65.51
2018-06-15T23:04:27.343Z,65.95
2018-06-15T23:06:39.761Z,66.88
2018-06-15T23:08:52.199Z,67.00
2018-06-15T23:11:04.620Z,66.29
2018-06-15T23:13:17.058Z,66.51
2018-06-15T23:15:29.387Z,66.63
2018-06-15T23:17:41.810Z,66.73
2018-06-15T23:19:54.106Z,67.29
2018-06-15T23:22:06.600Z,67.77
2018-06-15T23:24:18.982Z,67.88
2018-06-15T23:26:31.560Z,66.74
2018-06-15T23:28:43.974Z,66.10
2018-06-15T23:30:56.601Z,66.46
2018-06-15T23:33:08.918Z,67.13
2018-06-15T23:35:21.401Z,66.84
2018-06-15T23:37:33.778Z,67.02
2018-06-15T23:39:46.152Z,67.35
2018-06-15T23:41:58.496Z,67.08
2018-06-15T23:44:10.829Z,67.53
2018-06-15T23:46:23.150Z,66.90
2018-06-15T23:48:35.473Z,68.05
2018-06-15T23:50:47.833Z,67.52
2018-06-15T23:53:00.207Z,67.52
2018-06-15T23:55:12.714Z,67.15
2018-06-15T23:57:25.054Z,67.08
2018-06-15T23:59:37.568Z,66.26
